Accueil
METAR-TAF:

METAR-TAF

Aéroports :

Base aérienne de Lechfeld

Lechfeld, Allemagne

latitude: 48-11N, longitude: 010-52E, altitude: 555 m

Observation

Le bulletin a été fait il y a 53 minutes, à 21:20 UTC
Vent 2 kt de est/sud-est
Température 19°C
Humidité 68%
Pression 1020 hPa
Visibilité 10 km ou plus
Quelques nuages à une hauteur de 35000 ft

METAR: ETSL 212120Z 11002KT 9999 FEW350 19/13 Q1020 BLU+

Heure: 00:13 (22:13 UTC)

Prévision

Le bulletin a été fait il y a 7 heures et 33 minutes, à 14:40 UTC
Prévision valable du 21 à 14 UTC au 21 à 23 UTC
Vent 8 kt de nord/nord-est
Visibilité: 1520 m
Quelques nuages à une hauteur de 5000 ft

TAF: ETSL 211440Z 2114/2123 03008KT 9999 NSW FEW050 CANCEL 1520 BY ETGL

Observations et prévisions météorologiques de plus de 4000 aéroports (messages METAR et TAF).

Les stations disponibles sont représentées par des disques jaunes et rouges sur la carte.

Passer la souris dessus pour voir le nom de la station.

Cliquer dessus pour voir les observations et prévisions météorologiques.

Pour changer de carte: cliquez sur les boutons verts avec une croix noire pour zoomer, sur le bouton vert avec un tiret pour effectuer un zoom arrière, ou sur les flèches vertes pour les cartes adjacentes.


METAR-TAF: